createdAt,value
2023-10-03T00:00:49.237Z,76.20
2023-10-03T00:03:54.302Z,76.40
2023-10-03T00:06:58.705Z,76.40
2023-10-03T00:10:01.826Z,76.40
2023-10-03T00:13:08.521Z,76.40
2023-10-03T00:16:13.271Z,76.50
2023-10-03T00:19:16.328Z,76.60
2023-10-03T00:22:20.605Z,76.60
2023-10-03T00:25:25.089Z,76.70
2023-10-03T00:28:28.517Z,76.80
2023-10-03T00:31:34.887Z,76.90
2023-10-03T00:34:41.453Z,77.00
2023-10-03T00:37:46.853Z,77.00
2023-10-03T00:40:52.325Z,77.10
2023-10-03T00:44:00.313Z,77.10
2023-10-03T00:47:08.177Z,77.20
2023-10-03T00:50:13.802Z,77.20
2023-10-03T00:53:17.838Z,77.40
2023-10-03T00:56:32.389Z,77.40
2023-10-03T00:59:35.634Z,77.40
2023-10-03T01:02:50.106Z,77.40
2023-10-03T01:05:53.522Z,77.50
2023-10-03T01:08:59.375Z,77.50
2023-10-03T01:12:02.460Z,77.60
2023-10-03T01:15:12.156Z,77.60
2023-10-03T01:18:22.105Z,77.60
2023-10-03T01:21:26.474Z,77.60
2023-10-03T01:24:31.249Z,77.70
2023-10-03T01:27:35.860Z,77.70
2023-10-03T01:30:39.050Z,77.80
2023-10-03T01:33:42.071Z,77.80
2023-10-03T01:36:47.735Z,77.90
2023-10-03T01:39:52.178Z,78.10
2023-10-03T01:42:55.442Z,78.20
2023-10-03T01:45:58.557Z,78.30
2023-10-03T01:49:03.509Z,78.30
2023-10-03T01:52:07.649Z,78.30
2023-10-03T01:55:13.732Z,78.20
2023-10-03T01:58:16.777Z,78.20
2023-10-03T02:01:19.868Z,78.20
2023-10-03T02:04:29.092Z,78.10
2023-10-03T02:07:32.364Z,78.20
2023-10-03T02:10:36.982Z,78.30
2023-10-03T02:13:42.057Z,78.30
2023-10-03T02:16:47.646Z,78.30
2023-10-03T02:19:50.774Z,78.40
2023-10-03T02:22:56.652Z,78.40
2023-10-03T02:26:11.479Z,78.40
2023-10-03T02:29:14.651Z,78.50
2023-10-03T02:32:17.896Z,78.40
2023-10-03T02:35:23.814Z,78.40
2023-10-03T02:38:31.000Z,78.40
2023-10-03T02:41:35.989Z,78.40
2023-10-03T02:44:39.138Z,78.40
2023-10-03T02:47:42.312Z,78.50
2023-10-03T02:50:47.678Z,78.50
2023-10-03T02:53:52.517Z,78.40
2023-10-03T02:56:57.023Z,78.40
2023-10-03T03:00:00.321Z,78.40
2023-10-03T03:03:07.694Z,78.40
2023-10-03T03:06:15.330Z,78.30
2023-10-03T03:09:25.044Z,78.30
2023-10-03T03:12:29.839Z,78.30
2023-10-03T03:15:33.692Z,78.20
2023-10-03T03:18:42.215Z,78.10
2023-10-03T03:21:46.490Z,77.90
2023-10-03T03:24:53.961Z,77.90
2023-10-03T03:27:58.449Z,77.80
2023-10-03T03:31:03.127Z,77.70
2023-10-03T03:34:09.609Z,77.60
2023-10-03T03:37:22.819Z,77.60
2023-10-03T03:40:32.951Z,77.60
2023-10-03T03:43:37.628Z,77.50
2023-10-03T03:46:41.722Z,77.50
2023-10-03T03:49:45.224Z,77.50
2023-10-03T03:52:50.126Z,77.50
2023-10-03T03:55:53.305Z,77.30
2023-10-03T03:58:57.793Z,77.10
2023-10-03T04:02:01.419Z,77.00
2023-10-03T04:05:09.323Z,77.00
2023-10-03T04:08:12.470Z,77.00
2023-10-03T04:11:21.622Z,76.90
2023-10-03T04:14:26.276Z,76.90
2023-10-03T04:17:29.733Z,76.80
2023-10-03T04:20:32.824Z,76.70
2023-10-03T04:23:35.976Z,76.60
2023-10-03T04:26:43.123Z,76.50
2023-10-03T04:29:48.777Z,76.20
2023-10-03T04:32:52.063Z,76.00
2023-10-03T04:35:55.418Z,75.30
2023-10-03T04:38:58.663Z,75.00
2023-10-03T04:42:01.818Z,74.70
2023-10-03T04:45:09.179Z,74.80
2023-10-03T04:48:13.557Z,74.60
2023-10-03T04:51:17.087Z,74.70
2023-10-03T04:54:20.340Z,74.50
2023-10-03T04:57:23.424Z,74.40
2023-10-03T05:00:28.467Z,74.30
2023-10-03T05:03:31.915Z,74.20
2023-10-03T05:06:37.135Z,74.20
2023-10-03T05:09:40.262Z,73.90
2023-10-03T05:12:46.257Z,74.00
2023-10-03T05:15:52.531Z,74.00
2023-10-03T05:18:56.524Z,73.80
2023-10-03T05:22:00.038Z,73.90
2023-10-03T05:25:03.864Z,73.70
2023-10-03T05:28:07.253Z,73.60
2023-10-03T05:31:16.303Z,73.70
2023-10-03T05:34:21.773Z,73.70
2023-10-03T05:37:24.866Z,73.20
2023-10-03T05:40:29.049Z,73.20
2023-10-03T05:43:32.292Z,72.90
2023-10-03T05:46:38.062Z,73.00
2023-10-03T05:49:41.378Z,72.60
2023-10-03T05:52:45.284Z,72.30
2023-10-03T05:55:48.416Z,72.00
2023-10-03T05:58:51.470Z,71.80
2023-10-03T06:01:56.920Z,71.60
2023-10-03T06:05:00.096Z,71.20
2023-10-03T06:08:03.485Z,70.70
2023-10-03T06:11:06.734Z,70.30
2023-10-03T06:14:09.911Z,70.10
2023-10-03T06:17:16.979Z,70.00
2023-10-03T06:20:20.360Z,70.00
2023-10-03T06:23:23.353Z,69.90
2023-10-03T06:26:26.534Z,69.90
2023-10-03T06:29:30.991Z,69.70
2023-10-03T06:32:35.787Z,69.80
2023-10-03T06:35:39.094Z,69.90
2023-10-03T06:38:42.752Z,69.80
2023-10-03T06:41:45.939Z,69.60
2023-10-03T06:44:49.009Z,69.60
2023-10-03T06:47:53.554Z,69.60
2023-10-03T06:50:57.483Z,70.00
2023-10-03T06:54:00.979Z,69.80
2023-10-03T06:57:05.154Z,69.70
2023-10-03T07:00:14.324Z,69.40
2023-10-03T07:03:18.936Z,69.70
2023-10-03T07:06:22.858Z,69.40
2023-10-03T07:09:25.929Z,69.40
2023-10-03T07:12:30.443Z,69.10
2023-10-03T07:15:34.440Z,69.00
2023-10-03T07:18:39.773Z,68.50
2023-10-03T07:21:43.163Z,68.70
2023-10-03T07:24:46.301Z,68.20
2023-10-03T07:27:50.749Z,67.90
2023-10-03T07:30:54.264Z,67.80
2023-10-03T07:33:58.786Z,68.00
2023-10-03T07:37:03.168Z,67.80
2023-10-03T07:40:07.957Z,67.70
2023-10-03T07:43:11.486Z,67.50
2023-10-03T07:46:14.752Z,67.30
2023-10-03T07:49:19.384Z,66.90
2023-10-03T07:52:23.946Z,66.90
2023-10-03T07:55:27.320Z,66.60
2023-10-03T07:58:33.878Z,66.60
2023-10-03T08:01:53.064Z,66.40
2023-10-03T08:05:02.899Z,66.20
2023-10-03T08:08:09.073Z,66.10
2023-10-03T08:11:14.223Z,65.40
2023-10-03T08:14:19.178Z,65.50
2023-10-03T08:17:27.503Z,65.10
2023-10-03T08:20:37.276Z,64.50
2023-10-03T08:23:40.811Z,63.60
2023-10-03T08:26:47.727Z,63.30
2023-10-03T08:29:52.610Z,62.70
2023-10-03T08:32:57.690Z,62.50
2023-10-03T08:36:02.302Z,61.80
2023-10-03T08:39:13.212Z,62.00
2023-10-03T08:42:19.617Z,61.50
2023-10-03T08:45:26.750Z,61.40
2023-10-03T08:48:36.029Z,61.30
2023-10-03T08:51:41.268Z,60.30
2023-10-03T08:54:45.873Z,60.20
2023-10-03T08:57:49.873Z,60.50
2023-10-03T09:00:59.981Z,60.30
2023-10-03T09:04:06.642Z,59.70
2023-10-03T09:07:11.332Z,59.80
2023-10-03T09:10:23.893Z,59.50
2023-10-03T09:13:30.519Z,59.80
2023-10-03T09:16:40.107Z,59.70
2023-10-03T09:19:46.302Z,60.30
2023-10-03T09:22:52.974Z,59.60
2023-10-03T09:25:58.452Z,59.80
2023-10-03T09:29:09.210Z,59.30
2023-10-03T09:32:15.475Z,59.50
2023-10-03T09:35:18.883Z,59.20
2023-10-03T09:38:43.614Z,59.40
2023-10-03T09:41:47.912Z,59.70
2023-10-03T09:44:52.623Z,59.70
2023-10-03T09:47:59.745Z,59.30
2023-10-03T09:51:07.051Z,59.40
2023-10-03T09:54:13.877Z,59.60
2023-10-03T09:57:19.656Z,59.90
2023-10-03T10:00:40.150Z,59.20
2023-10-03T10:03:47.807Z,59.30
2023-10-03T10:06:53.491Z,59.40
2023-10-03T10:10:08.746Z,59.40
2023-10-03T10:13:22.283Z,59.30
2023-10-03T10:16:29.448Z,59.50
2023-10-03T10:20:06.654Z,59.70
2023-10-03T10:23:18.771Z,59.50
2023-10-03T10:26:32.180Z,59.10
2023-10-03T10:29:37.619Z,58.30
2023-10-03T10:32:50.438Z,57.90
2023-10-03T10:35:56.268Z,58.20
2023-10-03T10:39:00.854Z,57.70
2023-10-03T10:42:17.289Z,57.10
2023-10-03T10:45:22.119Z,57.30
2023-10-03T10:48:41.255Z,56.60
2023-10-03T10:51:56.618Z,56.40
2023-10-03T10:55:02.391Z,56.20
2023-10-03T10:58:09.589Z,56.10
2023-10-03T11:01:14.321Z,55.70
2023-10-03T11:04:27.113Z,55.90
2023-10-03T11:07:34.510Z,55.30
2023-10-03T11:10:40.050Z,56.00
2023-10-03T11:13:53.111Z,55.70
2023-10-03T11:16:56.619Z,55.70
2023-10-03T11:20:01.490Z,54.90
2023-10-03T11:23:04.753Z,55.60
2023-10-03T11:26:07.933Z,55.30
2023-10-03T11:29:12.940Z,54.80
2023-10-03T11:32:21.009Z,55.10
2023-10-03T11:35:24.572Z,55.20
2023-10-03T11:38:27.862Z,54.60
2023-10-03T11:41:34.765Z,54.80
2023-10-03T11:44:39.529Z,55.00
2023-10-03T11:47:42.717Z,55.30
2023-10-03T11:50:47.911Z,55.30
2023-10-03T11:53:51.110Z,55.90
2023-10-03T11:56:54.260Z,56.00
2023-10-03T12:00:02.700Z,55.80
2023-10-03T12:03:07.636Z,56.00
2023-10-03T12:06:10.989Z,56.40
2023-10-03T12:09:14.595Z,56.30
2023-10-03T12:12:18.092Z,56.50
2023-10-03T12:15:25.271Z,56.90
2023-10-03T12:18:29.028Z,57.20
2023-10-03T12:21:32.291Z,56.90
2023-10-03T12:24:36.072Z,57.10
2023-10-03T12:27:40.101Z,57.30
2023-10-03T12:30:44.879Z,57.50
2023-10-03T12:33:47.924Z,57.40
2023-10-03T12:36:51.091Z,57.40
2023-10-03T12:39:54.156Z,57.20
2023-10-03T12:42:57.211Z,57.50
2023-10-03T12:46:02.159Z,57.40
2023-10-03T12:49:08.318Z,57.30
2023-10-03T12:52:11.543Z,57.50
2023-10-03T12:55:14.588Z,57.80
2023-10-03T12:58:20.710Z,58.10
2023-10-03T13:01:25.244Z,59.10
2023-10-03T13:04:29.058Z,59.80
2023-10-03T13:07:36.571Z,59.90
2023-10-03T13:10:43.150Z,60.30
2023-10-03T13:13:49.064Z,60.00
2023-10-03T13:17:03.108Z,60.00
2023-10-03T13:20:09.114Z,60.10
2023-10-03T13:23:12.110Z,59.70
2023-10-03T13:26:15.136Z,60.20
2023-10-03T13:29:18.500Z,60.10
2023-10-03T13:32:22.880Z,60.40
2023-10-03T13:35:29.334Z,60.30
2023-10-03T13:38:32.442Z,59.90
2023-10-03T13:41:36.519Z,59.90
2023-10-03T13:44:40.059Z,59.90
2023-10-03T13:47:46.419Z,59.50
2023-10-03T13:50:51.406Z,59.50
2023-10-03T13:53:54.597Z,59.60
2023-10-03T13:56:57.635Z,60.30
2023-10-03T14:00:01.303Z,60.80
2023-10-03T14:03:19.257Z,61.00
2023-10-03T14:06:23.944Z,61.00
2023-10-03T14:09:28.612Z,61.10
2023-10-03T14:12:31.823Z,61.30
2023-10-03T14:15:39.394Z,61.10
2023-10-03T14:18:44.078Z,61.10
2023-10-03T14:21:47.630Z,60.90
2023-10-03T14:24:51.461Z,61.20
2023-10-03T14:27:55.438Z,61.00
2023-10-03T14:30:58.536Z,61.20
2023-10-03T14:34:03.142Z,61.30
2023-10-03T14:37:06.922Z,61.40
2023-10-03T14:40:17.037Z,61.50
2023-10-03T14:43:20.753Z,61.40
2023-10-03T14:46:24.364Z,61.60
2023-10-03T14:49:30.285Z,61.60
2023-10-03T14:52:33.436Z,61.20
2023-10-03T14:55:36.445Z,61.30
2023-10-03T14:58:40.061Z,61.20
2023-10-03T15:01:43.190Z,61.00
2023-10-03T15:04:47.817Z,60.80
2023-10-03T15:07:50.847Z,61.10
2023-10-03T15:11:02.417Z,60.80
2023-10-03T15:14:06.014Z,60.80
2023-10-03T15:17:12.217Z,60.50
2023-10-03T15:20:17.743Z,60.70
2023-10-03T15:23:23.455Z,60.50
2023-10-03T15:26:26.429Z,60.80
2023-10-03T15:29:29.439Z,60.70
2023-10-03T15:32:32.805Z,60.50
2023-10-03T15:35:37.601Z,60.50
2023-10-03T15:38:41.254Z,61.00
2023-10-03T15:41:44.371Z,60.70
2023-10-03T15:44:59.281Z,61.10
2023-10-03T15:48:12.080Z,61.00
2023-10-03T15:51:17.575Z,60.90
2023-10-03T15:54:20.768Z,61.10
2023-10-03T15:57:23.938Z,61.20
2023-10-03T16:00:27.576Z,61.50
2023-10-03T16:03:31.295Z,63.00
2023-10-03T16:06:39.002Z,68.20
2023-10-03T16:09:44.776Z,71.10
2023-10-03T16:12:48.272Z,72.90
2023-10-03T16:15:51.466Z,74.30
2023-10-03T16:18:54.538Z,76.20
2023-10-03T16:22:00.104Z,77.10
2023-10-03T16:25:06.436Z,78.40
2023-10-03T16:28:09.873Z,79.00
2023-10-03T16:31:15.368Z,79.40
2023-10-03T16:34:18.499Z,79.90
2023-10-03T16:37:22.876Z,79.60
2023-10-03T16:40:26.355Z,79.40
2023-10-03T16:43:29.290Z,79.20
2023-10-03T16:46:33.273Z,79.50
2023-10-03T16:49:36.484Z,79.60
2023-10-03T16:52:41.380Z,79.80
2023-10-03T16:55:44.433Z,80.50
2023-10-03T16:58:47.508Z,80.50
2023-10-03T17:01:50.690Z,80.00
2023-10-03T17:04:53.864Z,80.00
2023-10-03T17:07:59.379Z,80.00
2023-10-03T17:11:02.603Z,80.10
2023-10-03T17:14:06.381Z,80.20
2023-10-03T17:17:10.118Z,80.70
2023-10-03T17:20:16.131Z,81.20
2023-10-03T17:23:20.660Z,80.80
2023-10-03T17:26:24.199Z,80.90
2023-10-03T17:29:27.209Z,80.70
2023-10-03T17:32:31.423Z,80.70
2023-10-03T17:35:35.180Z,80.70
2023-10-03T17:38:40.077Z,80.60
2023-10-03T17:41:44.223Z,80.10
2023-10-03T17:44:48.149Z,80.10
2023-10-03T17:47:52.509Z,79.80
2023-10-03T17:50:55.661Z,80.20
2023-10-03T17:54:00.249Z,80.20
2023-10-03T17:57:04.866Z,79.60
2023-10-03T18:00:12.187Z,80.00
2023-10-03T18:03:16.216Z,80.10
2023-10-03T18:06:19.507Z,79.70
2023-10-03T18:09:26.153Z,79.40
2023-10-03T18:12:29.318Z,79.50
2023-10-03T18:15:32.423Z,79.30
2023-10-03T18:18:36.054Z,79.30
2023-10-03T18:21:39.628Z,79.50
2023-10-03T18:24:44.044Z,80.00
2023-10-03T18:27:48.140Z,80.20
2023-10-03T18:30:51.783Z,80.10
2023-10-03T18:33:55.914Z,80.20
2023-10-03T18:36:59.357Z,80.20
2023-10-03T18:40:04.777Z,80.20
2023-10-03T18:43:08.166Z,79.90
2023-10-03T18:46:11.587Z,80.10
2023-10-03T18:49:15.004Z,80.00
2023-10-03T18:52:18.487Z,79.30
2023-10-03T18:55:23.690Z,79.40
2023-10-03T18:58:27.442Z,79.10
2023-10-03T19:04:41.104Z,77.90
2023-10-03T19:07:44.391Z,78.30
2023-10-03T19:10:50.579Z,78.10
2023-10-03T19:13:56.933Z,78.20
2023-10-03T19:17:00.093Z,78.60
2023-10-03T19:20:04.932Z,78.30
2023-10-03T19:23:08.056Z,76.10
2023-10-03T19:26:18.209Z,76.20
2023-10-03T19:29:21.437Z,75.80
2023-10-03T19:32:24.796Z,76.00
2023-10-03T19:35:27.976Z,75.90
2023-10-03T19:38:32.140Z,75.00
2023-10-03T19:41:38.185Z,74.70
2023-10-03T19:44:42.852Z,74.80
2023-10-03T19:47:46.963Z,75.00
2023-10-03T19:50:50.264Z,75.00
2023-10-03T19:53:55.662Z,75.10
2023-10-03T19:57:00.532Z,75.30
2023-10-03T20:00:04.671Z,75.60
2023-10-03T20:03:10.291Z,76.20
2023-10-03T20:06:13.611Z,76.40
2023-10-03T20:12:22.365Z,76.40
2023-10-03T20:15:26.630Z,76.30
2023-10-03T20:18:29.891Z,76.10
2023-10-03T20:21:34.315Z,76.30
2023-10-03T20:24:37.729Z,75.80
2023-10-03T20:27:42.329Z,75.60
2023-10-03T20:30:47.589Z,75.30
2023-10-03T20:33:52.546Z,75.70
2023-10-03T20:36:57.654Z,75.40
2023-10-03T20:40:00.763Z,75.40
2023-10-03T20:43:08.222Z,75.20
2023-10-03T20:46:12.751Z,75.00
2023-10-03T20:49:17.998Z,74.70
2023-10-03T20:52:21.640Z,74.50
2023-10-03T20:55:25.100Z,74.30
2023-10-03T20:58:30.883Z,74.60
2023-10-03T21:01:33.977Z,74.70
2023-10-03T21:04:38.371Z,74.80
2023-10-03T21:07:41.641Z,74.70
2023-10-03T21:10:46.723Z,74.80
2023-10-03T21:13:51.175Z,75.00
2023-10-03T21:16:54.999Z,75.20
2023-10-03T21:19:58.186Z,75.20
2023-10-03T21:23:04.363Z,75.30
2023-10-03T21:26:08.273Z,75.40
2023-10-03T21:29:12.995Z,75.60
2023-10-03T21:32:16.133Z,75.60
2023-10-03T21:35:21.112Z,75.70
2023-10-03T21:38:24.335Z,75.70
2023-10-03T21:41:27.433Z,75.90
2023-10-03T21:44:33.628Z,76.00
2023-10-03T21:47:36.775Z,75.90
2023-10-03T21:50:41.347Z,75.90
2023-10-03T21:53:45.120Z,76.20
2023-10-03T21:56:48.218Z,76.40
2023-10-03T21:59:52.724Z,76.20
2023-10-03T22:02:56.189Z,76.10
2023-10-03T22:05:59.733Z,76.00
2023-10-03T22:09:03.173Z,76.20
2023-10-03T22:12:07.058Z,75.90
2023-10-03T22:15:12.551Z,75.90
2023-10-03T22:18:15.855Z,75.80
2023-10-03T22:21:19.506Z,75.90
2023-10-03T22:24:23.413Z,75.90
2023-10-03T22:27:27.170Z,76.00
2023-10-03T22:30:34.227Z,75.80
2023-10-03T22:33:37.923Z,76.20
2023-10-03T22:36:44.021Z,76.10
2023-10-03T22:39:47.233Z,76.40
2023-10-03T22:42:50.263Z,76.60
2023-10-03T22:45:54.759Z,77.00
2023-10-03T22:48:58.009Z,77.10
2023-10-03T22:52:01.193Z,77.20
2023-10-03T22:55:04.450Z,77.10
2023-10-03T22:58:07.588Z,77.50
2023-10-03T23:01:13.158Z,77.50
2023-10-03T23:04:16.731Z,77.80
2023-10-03T23:07:20.704Z,77.70
2023-10-03T23:10:24.815Z,77.90
2023-10-03T23:13:27.915Z,77.90
2023-10-03T23:16:32.895Z,77.90
2023-10-03T23:19:36.384Z,77.90
2023-10-03T23:22:39.533Z,77.90
2023-10-03T23:25:42.839Z,77.80
2023-10-03T23:28:46.072Z,77.50
2023-10-03T23:31:51.777Z,77.50
2023-10-03T23:34:55.041Z,77.20
2023-10-03T23:37:58.030Z,77.00
2023-10-03T23:41:01.071Z,76.70
2023-10-03T23:44:04.455Z,76.70
2023-10-03T23:47:08.899Z,76.50
2023-10-03T23:50:12.811Z,75.80
2023-10-03T23:53:18.612Z,75.80
2023-10-03T23:56:22.429Z,75.70
2023-10-03T23:59:25.562Z,75.50
